Time;durP1;ratioP1;P1;durP2;ratioP2;P2;SDS_P1;SDS_P2;PMS_P1;PMS_P2;Temp;Humidity;BMP_temperature;BMP_pressure;BME280_temperature;BME280_humidity;BME280_pressure;Samples;Min_cycle;Max_cycle;Signal;HPM_P1;HPM_P2
2022/01/13 00:01:01;;;;;;;;;;;;;;;18.18;58.00;102801.31;5089746;28;1912;-38
2022/01/13 00:03:28;;;;;;;;;;;;;;;18.18;58.36;102806.66;5075687;28;1991;-37
2022/01/13 00:05:55;;;;;;;;;;;;;;;18.19;58.22;102812.91;5076012;28;1860;-37
2022/01/13 00:08:23;;;;;;;;;;;;;;;18.17;57.73;102810.31;5093392;28;1786;-38
2022/01/13 00:10:52;;;;;;;;;;;;;;;18.16;58.29;102797.84;5081749;28;1380;-38
2022/01/13 00:13:24;;;;;;;;;;;;;;;18.10;58.12;102808.88;5093642;28;2014;-37
2022/01/13 00:16:23;;;;;;;;;;;;;;;18.05;58.23;102810.94;5091872;28;1973;-37
2022/01/13 00:19:05;;;;;;;;;;;;;;;17.99;58.39;102808.59;5083051;28;1977;-38
2022/01/13 00:21:38;;;;;;;;;;;;;;;17.94;58.59;102814.16;5084536;28;1988;-38
2022/01/13 00:24:06;;;;;;;;;;;;;;;17.93;58.67;102822.28;5090885;28;1832;-37
2022/01/13 00:26:34;;;;;;;;;;;;;;;17.84;58.44;102819.09;5091471;28;1419;-38
2022/01/13 00:29:03;;;;;;;;;;;;;;;17.77;58.48;102816.81;5089254;28;1597;-37
2022/01/13 00:31:40;;;;;;;;;;;;;;;17.70;58.50;102818.91;5086818;28;1874;-38
2022/01/13 00:34:08;;;;;;;;;;;;;;;17.60;58.46;102806.94;5086004;28;1911;-37
2022/01/13 00:36:36;;;;;;;;;;;;;;;17.53;58.39;102825.13;5086510;28;1393;-38
2022/01/13 00:39:04;;;;;;;;;;;;;;;17.50;58.52;102826.09;5081961;28;1602;-38
2022/01/13 00:41:34;;;;;;;;;;;;;;;17.48;58.52;102819.97;5083706;28;1971;-37
2022/01/13 00:44:23;;;;;;;;;;;;;;;17.42;58.85;102822.94;5074924;28;1725;-38
2022/01/13 00:46:58;;;;;;;;;;;;;;;17.38;58.79;102816.00;5076252;28;1590;-38
2022/01/13 00:49:25;;;;;;;;;;;;;;;17.37;58.97;102825.00;5082034;28;1059;-37
2022/01/13 00:51:53;;;;;;;;;;;;;;;17.40;58.42;102811.47;5081246;28;1674;-38
2022/01/13 00:54:21;;;;;;;;;;;;;;;17.32;58.87;102821.66;5079781;28;2023;-37
2022/01/13 00:56:51;;;;;;;;;;;;;;;17.24;59.09;102823.84;5091211;28;1644;-37
2022/01/13 00:59:18;;;;;;;;;;;;;;;17.21;59.63;102818.63;5081762;28;1565;-38
2022/01/13 01:01:47;;;;;;;;;;;;;;;17.22;59.47;102828.41;5086161;28;1937;-37
2022/01/13 01:04:23;;;;;;;;;;;;;;;17.19;59.53;102825.84;5081008;28;1909;-38
2022/01/13 01:06:50;;;;;;;;;;;;;;;17.19;59.66;102831.22;5082470;28;1654;-38
2022/01/13 01:09:23;;;;;;;;;;;;;;;17.15;59.76;102830.50;5081524;28;1789;-37
2022/01/13 01:11:55;;;;;;;;;;;;;;;17.17;59.75;102823.28;5094911;28;1910;-37
2022/01/13 01:14:23;;;;;;;;;;;;;;;17.15;59.33;102825.16;5089778;28;1979;-38
2022/01/13 01:16:51;;;;;;;;;;;;;;;17.14;59.40;102836.78;5089925;28;1585;-39
2022/01/13 01:19:32;;;;;;;;;;;;;;;17.09;59.56;102831.66;5096449;28;1193;-38
2022/01/13 01:22:29;;;;;;;;;;;;;;;17.05;59.68;102834.53;5086813;28;1968;-38
2022/01/13 01:25:06;;;;;;;;;;;;;;;17.06;59.72;102839.81;5084524;28;1562;-38
2022/01/13 01:27:40;;;;;;;;;;;;;;;17.15;59.48;102845.66;5090960;28;1823;-37
2022/01/13 01:30:12;;;;;;;;;;;;;;;17.31;59.16;102836.00;5088486;28;1649;-37
2022/01/13 01:32:41;;;;;;;;;;;;;;;17.29;58.97;102817.34;5077861;28;1255;-38
2022/01/13 01:35:15;;;;;;;;;;;;;;;17.38;59.16;102815.16;5082973;28;1558;-38
2022/01/13 01:37:43;;;;;;;;;;;;;;;17.53;58.47;102826.91;5086357;28;995;-37
2022/01/13 01:40:10;;;;;;;;;;;;;;;17.56;58.43;102834.78;5088294;28;1993;-37
2022/01/13 01:42:47;;;;;;;;;;;;;;;17.55;58.48;102822.34;5091060;28;1979;-38
2022/01/13 01:45:43;;;;;;;;;;;;;;;17.56;58.24;102808.91;5078342;28;1832;-37
2022/01/13 01:48:23;;;;;;;;;;;;;;;17.58;58.28;102814.19;5077488;28;1729;-37
2022/01/13 01:50:58;;;;;;;;;;;;;;;17.56;58.20;102818.75;5092540;28;1554;-37
2022/01/13 01:53:25;;;;;;;;;;;;;;;17.62;58.06;102818.44;5097422;28;1633;-38
2022/01/13 01:56:00;;;;;;;;;;;;;;;17.61;58.14;102814.91;5079559;28;1970;-38
2022/01/13 01:58:31;;;;;;;;;;;;;;;17.60;58.17;102833.69;5081785;28;1776;-37
2022/01/13 02:00:58;;;;;;;;;;;;;;;17.58;58.13;102822.19;5091150;28;1991;-40
2022/01/13 02:03:26;;;;;;;;;;;;;;;17.50;58.42;102823.44;5083789;28;1923;-37
2022/01/13 02:05:58;;;;;;;;;;;;;;;17.48;58.52;102822.66;5091473;28;1668;-38
2022/01/13 02:08:30;;;;;;;;;;;;;;;17.48;58.65;102814.63;5089290;28;1745;-37
2022/01/13 02:10:56;;;;;;;;;;;;;;;17.38;58.79;102820.50;5084526;28;1045;-37
2022/01/13 02:13:33;;;;;;;;;;;;;;;17.34;59.11;102802.88;5089302;28;1975;-38
2022/01/13 02:16:04;;;;;;;;;;;;;;;17.26;59.19;102821.97;5090351;28;2029;-38
2022/01/13 02:18:33;;;;;;;;;;;;;;;17.23;59.38;102822.09;5091688;28;1764;-38
2022/01/13 02:21:04;;;;;;;;;;;;;;;17.21;59.02;102823.97;5093529;28;1910;-37
2022/01/13 02:23:37;;;;;;;;;;;;;;;17.29;58.87;102822.69;5088846;28;1459;-36
2022/01/13 02:26:12;;;;;;;;;;;;;;;17.30;59.04;102815.53;5077472;28;1789;-37
2022/01/13 02:28:44;;;;;;;;;;;;;;;17.29;58.81;102827.19;5076031;28;1422;-38
2022/01/13 02:31:12;;;;;;;;;;;;;;;17.25;58.67;102820.25;5086115;28;1727;-38
2022/01/13 02:33:49;;;;;;;;;;;;;;;17.32;58.79;102837.72;5080357;28;1065;-39
2022/01/13 02:36:49;;;;;;;;;;;;;;;17.31;58.71;102819.94;5090239;28;1796;-37
2022/01/13 02:39:18;;;;;;;;;;;;;;;17.27;58.83;102827.25;5081370;28;1849;-38
2022/01/13 02:41:45;;;;;;;;;;;;;;;17.26;58.65;102830.84;5087037;28;1906;-37
2022/01/13 02:44:17;;;;;;;;;;;;;;;17.30;58.75;102819.06;5089857;28;2037;-38
2022/01/13 02:47:20;;;;;;;;;;;;;;;17.25;58.97;102818.44;5088095;28;1628;-37
2022/01/13 02:49:48;;;;;;;;;;;;;;;17.22;58.63;102825.72;5074736;28;1326;-37
2022/01/13 02:52:19;;;;;;;;;;;;;;;17.32;59.01;102843.06;5083820;28;1772;-36
2022/01/13 02:54:47;;;;;;;;;;;;;;;17.29;58.52;102837.88;5086636;28;2031;-38
2022/01/13 02:57:13;;;;;;;;;;;;;;;17.28;58.50;102838.81;5084593;28;1730;-38
2022/01/13 02:59:43;;;;;;;;;;;;;;;17.25;58.49;102841.63;5074510;28;1071;-37
2022/01/13 03:02:12;;;;;;;;;;;;;;;17.28;58.89;102834.31;5161495;22;3757;-39
2022/01/13 03:04:47;;;;;;;;;;;;;;;17.27;58.58;102823.72;5040399;28;1392;-38
2022/01/13 03:07:14;;;;;;;;;;;;;;;17.28;58.39;102831.63;5036605;28;1442;-37
2022/01/13 03:09:54;;;;;;;;;;;;;;;17.27;58.25;102823.72;5041613;28;1735;-38
2022/01/13 03:12:26;;;;;;;;;;;;;;;17.19;58.85;102825.84;5038579;28;1908;-38
2022/01/13 03:14:53;;;;;;;;;;;;;;;17.27;58.82;102823.72;5040366;28;1718;-38
2022/01/13 03:17:20;;;;;;;;;;;;;;;17.30;58.14;102831.56;5036175;28;1039;-38
2022/01/13 03:19:50;;;;;;;;;;;;;;;17.65;57.21;102829.00;5039413;28;1937;-39
2022/01/13 03:22:18;;;;;;;;;;;;;;;17.80;57.14;102822.84;5042649;28;1969;-37
2022/01/13 03:24:50;;;;;;;;;;;;;;;18.07;56.74;102814.41;5040557;28;1618;-37
2022/01/13 03:27:22;;;;;;;;;;;;;;;18.14;56.62;102804.22;5041550;28;1700;-37
2022/01/13 03:29:49;;;;;;;;;;;;;;;18.25;55.95;102816.13;5049815;28;1626;-38
2022/01/13 03:32:17;;;;;;;;;;;;;;;18.29;56.28;102809.66;5048611;28;1670;-37
2022/01/13 03:34:44;;;;;;;;;;;;;;;18.31;56.30;102814.94;5049181;28;1591;-39
2022/01/13 03:37:11;;;;;;;;;;;;;;;18.31;56.11;102809.56;5050335;28;1763;-39
2022/01/13 03:39:38;;;;;;;;;;;;;;;18.33;56.26;102812.19;5042613;28;1668;-38
2022/01/13 03:42:08;;;;;;;;;;;;;;;18.28;56.47;102823.13;5043217;28;1975;-38
2022/01/13 03:44:35;;;;;;;;;;;;;;;18.22;56.27;102824.31;5048610;28;1734;-37
2022/01/13 03:47:04;;;;;;;;;;;;;;;18.20;56.42;102822.66;5047786;28;1785;-37
2022/01/13 03:49:32;;;;;;;;;;;;;;;18.07;56.50;102823.28;5045623;28;1130;-38
2022/01/13 03:52:33;;;;;;;;;;;;;;;18.09;56.61;102817.88;5045673;28;1730;-38
2022/01/13 03:55:21;;;;;;;;;;;;;;;17.97;56.87;102831.88;5044040;28;1829;-38
2022/01/13 03:58:06;;;;;;;;;;;;;;;17.94;56.89;102834.72;5039602;28;1651;-38
2022/01/13 04:00:51;;;;;;;;;;;;;;;17.87;56.71;102818.97;5036757;28;1786;-38
2022/01/13 04:03:20;;;;;;;;;;;;;;;17.84;56.47;102823.59;5043729;28;2046;-37
2022/01/13 04:06:09;;;;;;;;;;;;;;;17.79;56.79;102820.28;5035578;28;1973;-38
2022/01/13 04:08:39;;;;;;;;;;;;;;;17.73;56.63;102821.44;5049963;28;1623;-38
2022/01/13 04:11:32;;;;;;;;;;;;;;;17.78;56.13;102821.19;5046943;28;1686;-38
2022/01/13 04:14:05;;;;;;;;;;;;;;;17.73;55.60;102829.47;5049357;28;1672;-38
2022/01/13 04:16:33;;;;;;;;;;;;;;;17.58;56.17;102819.53;5052832;28;1674;-37
2022/01/13 04:19:04;;;;;;;;;;;;;;;17.43;56.77;102814.00;5041453;28;1547;-38
2022/01/13 04:21:31;;;;;;;;;;;;;;;17.33;56.88;102842.13;5034037;28;1902;-39
2022/01/13 04:23:59;;;;;;;;;;;;;;;17.36;57.27;102838.44;5039412;28;1619;-38
2022/01/13 04:26:30;;;;;;;;;;;;;;;17.37;57.80;102840.16;5039686;28;1647;-38
2022/01/13 04:29:06;;;;;;;;;;;;;;;17.35;58.03;102847.38;5048077;28;1680;-38
2022/01/13 04:31:38;;;;;;;;;;;;;;;17.28;57.60;102846.81;5037719;28;1591;-38
2022/01/13 04:34:05;;;;;;;;;;;;;;;17.21;57.64;102840.03;5035627;28;1471;-37
2022/01/13 04:36:36;;;;;;;;;;;;;;;17.22;58.23;102852.47;5035136;28;1983;-37
2022/01/13 04:39:11;;;;;;;;;;;;;;;17.34;57.58;102849.19;5039370;28;1589;-37
2022/01/13 04:41:39;;;;;;;;;;;;;;;17.45;57.37;102854.91;5049771;28;1906;-38
2022/01/13 04:44:12;;;;;;;;;;;;;;;17.48;57.50;102844.03;5045507;28;1628;-38
2022/01/13 04:46:45;;;;;;;;;;;;;;;17.41;57.34;102856.00;5046438;28;1661;-38
2022/01/13 04:49:14;;;;;;;;;;;;;;;17.41;57.66;102837.28;5039370;28;954;-37
2022/01/13 04:51:41;;;;;;;;;;;;;;;17.44;57.37;102847.81;5048199;28;1501;-38
2022/01/13 04:54:08;;;;;;;;;;;;;;;17.38;57.55;102842.75;5044447;28;1262;-37
2022/01/13 04:56:42;;;;;;;;;;;;;;;17.36;57.87;102866.03;5052336;28;1548;-37
2022/01/13 04:59:14;;;;;;;;;;;;;;;17.30;57.84;102839.59;5043225;28;1638;-39
2022/01/13 05:01:43;;;;;;;;;;;;;;;17.34;57.72;102861.72;5053710;28;1979;-39
2022/01/13 05:04:09;;;;;;;;;;;;;;;17.29;57.85;102869.97;5047663;28;1074;-38
2022/01/13 05:06:36;;;;;;;;;;;;;;;17.25;57.95;102865.72;5048737;28;1512;-37
2022/01/13 05:09:03;;;;;;;;;;;;;;;17.24;57.99;102864.81;5041386;28;1940;-38
2022/01/13 05:11:33;;;;;;;;;;;;;;;17.19;58.30;102871.31;5050120;28;1638;-37
2022/01/13 05:14:01;;;;;;;;;;;;;;;17.21;58.20;102870.31;5051767;28;1928;-38
2022/01/13 05:16:34;;;;;;;;;;;;;;;17.23;57.93;102881.81;5041354;28;1843;-37
2022/01/13 05:19:13;;;;;;;;;;;;;;;17.25;58.15;102871.91;5045053;28;1520;-37
2022/01/13 05:22:15;;;;;;;;;;;;;;;17.25;58.11;102873.72;5051581;28;1906;-38
2022/01/13 05:24:34;;;;;;;;;;;;;;;17.27;57.97;102867.34;5048874;28;1952;-38
2022/01/13 05:27:01;;;;;;;;;;;;;;;17.26;58.26;102875.44;5013034;28;10920;-38
2022/01/13 05:29:28;;;;;;;;;;;;;;;17.22;58.25;102860.50;5051862;28;1511;-37
2022/01/13 05:31:55;;;;;;;;;;;;;;;17.28;57.89;102879.78;5042201;28;1491;-39
2022/01/13 05:34:28;;;;;;;;;;;;;;;17.28;58.15;102878.91;5049633;28;1373;-38
2022/01/13 05:37:04;;;;;;;;;;;;;;;17.25;58.81;102863.88;5048578;28;1612;-37
2022/01/13 05:39:33;;;;;;;;;;;;;;;17.18;57.65;102867.78;5047803;28;1355;-37
2022/01/13 05:42:01;;;;;;;;;;;;;;;17.30;57.38;102888.59;5048279;28;1973;-38
2022/01/13 05:47:10;;;;;;;;;;;;;;;18.12;55.89;102881.09;5043807;28;1594;-38
2022/01/13 05:49:42;;;;;;;;;;;;;;;18.43;55.26;102886.59;5049800;28;1292;-38
2022/01/13 05:52:13;;;;;;;;;;;;;;;18.51;55.38;102875.50;5054098;28;1982;-38
2022/01/13 05:54:42;;;;;;;;;;;;;;;18.59;55.14;102881.31;5048384;28;1734;-38
2022/01/13 05:57:09;;;;;;;;;;;;;;;18.65;55.14;102888.16;5048187;28;1855;-38
2022/01/13 05:59:36;;;;;;;;;;;;;;;18.69;55.49;102895.94;5052506;28;1557;-38
2022/01/13 06:02:04;;;;;;;;;;;;;;;18.77;55.74;102900.03;5043623;28;1902;-38
2022/01/13 06:04:31;;;;;;;;;;;;;;;18.80;54.58;102898.09;5035711;28;1095;-38
2022/01/13 06:07:03;;;;;;;;;;;;;;;18.81;54.92;102890.91;5044875;28;1782;-39
2022/01/13 06:09:32;;;;;;;;;;;;;;;18.83;54.91;102889.03;5053056;28;1641;-39
2022/01/13 06:12:03;;;;;;;;;;;;;;;18.84;55.39;102893.41;5048859;28;1599;-38
2022/01/13 06:14:30;;;;;;;;;;;;;;;18.83;54.71;102889.88;5046030;28;1817;-38
2022/01/13 06:16:59;;;;;;;;;;;;;;;18.85;54.89;102898.69;5045069;28;1487;-37
2022/01/13 06:19:27;;;;;;;;;;;;;;;18.83;54.84;102910.47;5047519;28;1031;-37
2022/01/13 06:22:02;;;;;;;;;;;;;;;18.86;54.74;102904.91;5040813;28;1906;-38
2022/01/13 06:24:37;;;;;;;;;;;;;;;18.87;54.73;102907.53;5049390;28;1845;-37
2022/01/13 06:27:05;;;;;;;;;;;;;;;18.87;55.02;102912.03;5047689;28;1584;-38
2022/01/13 06:29:33;;;;;;;;;;;;;;;18.84;55.27;102912.19;5042870;28;1937;-38
2022/01/13 06:31:59;;;;;;;;;;;;;;;18.84;55.84;102921.13;5045840;28;1527;-37
2022/01/13 06:34:25;;;;;;;;;;;;;;;18.82;55.17;102906.03;5055488;28;1695;-38
2022/01/13 06:36:54;;;;;;;;;;;;;;;18.78;55.37;102917.84;5053088;28;1432;-37
2022/01/13 06:39:25;;;;;;;;;;;;;;;18.79;54.96;102919.59;5044927;28;1872;-38
2022/01/13 06:41:57;;;;;;;;;;;;;;;18.81;54.88;102912.38;5050072;28;1906;-37
2022/01/13 06:44:31;;;;;;;;;;;;;;;18.78;55.62;102912.47;5052768;28;2020;-38
2022/01/13 06:47:01;;;;;;;;;;;;;;;18.79;55.93;102930.31;5037581;28;1996;-37
2022/01/13 06:49:29;;;;;;;;;;;;;;;18.73;55.46;102919.91;5047114;28;1727;-37
2022/01/13 06:51:58;;;;;;;;;;;;;;;18.72;55.07;102920.84;5045037;28;1836;-36
2022/01/13 06:54:32;;;;;;;;;;;;;;;18.72;55.77;102908.34;5050775;28;1697;-38
2022/01/13 06:57:04;;;;;;;;;;;;;;;18.76;55.62;102919.72;5049666;28;1519;-38
2022/01/13 06:59:37;;;;;;;;;;;;;;;18.83;57.14;102923.88;5041892;28;1406;-37
2022/01/13 07:02:07;;;;;;;;;;;;;;;18.79;57.30;102924.94;5050455;28;1898;-38
2022/01/13 07:04:37;;;;;;;;;;;;;;;18.80;57.32;102921.34;5042051;28;1718;-38
2022/01/13 07:07:04;;;;;;;;;;;;;;;18.71;57.23;102921.81;5042566;28;1790;-38
2022/01/13 07:09:33;;;;;;;;;;;;;;;18.62;57.93;102929.41;5051435;28;2015;-38
2022/01/13 07:12:12;;;;;;;;;;;;;;;18.68;57.39;102917.47;5048633;28;1749;-36
2022/01/13 07:14:47;;;;;;;;;;;;;;;18.70;58.43;102931.63;5051842;28;1732;-35
2022/01/13 07:17:21;;;;;;;;;;;;;;;18.72;59.23;102934.25;5044400;28;1628;-37
2022/01/13 07:19:48;;;;;;;;;;;;;;;18.74;58.73;102948.44;5045101;28;1623;-36
2022/01/13 07:22:18;;;;;;;;;;;;;;;18.75;58.75;102932.28;5041807;28;2002;-37
2022/01/13 07:24:54;;;;;;;;;;;;;;;18.80;58.71;102937.41;5048854;28;1864;-36
2022/01/13 07:27:25;;;;;;;;;;;;;;;18.78;58.14;102936.59;5051896;28;1704;-36
2022/01/13 07:29:54;;;;;;;;;;;;;;;18.84;58.35;102934.50;5039149;28;1540;-37
2022/01/13 07:32:24;;;;;;;;;;;;;;;18.81;59.42;102928.44;5043755;28;1808;-36
2022/01/13 07:34:53;;;;;;;;;;;;;;;18.78;58.40;102940.16;5051577;28;1376;-36
2022/01/13 07:37:20;;;;;;;;;;;;;;;18.69;59.69;102940.66;5043626;28;1833;-37
2022/01/13 07:39:47;;;;;;;;;;;;;;;18.81;59.31;102937.34;5044642;28;1434;-37
2022/01/13 07:42:14;;;;;;;;;;;;;;;18.70;59.82;102926.28;5047939;28;1992;-36
2022/01/13 07:44:47;;;;;;;;;;;;;;;18.62;59.94;102953.50;5048675;28;1681;-37
2022/01/13 07:47:16;;;;;;;;;;;;;;;18.68;58.77;102961.22;5045672;28;1717;-36
2022/01/13 07:49:46;;;;;;;;;;;;;;;18.74;59.07;102948.44;5047509;28;1289;-37
2022/01/13 07:52:16;;;;;;;;;;;;;;;18.63;59.56;102957.91;5046694;28;1782;-36
2022/01/13 07:54:42;;;;;;;;;;;;;;;18.63;59.80;102949.00;5051009;28;1614;-36
2022/01/13 07:57:10;;;;;;;;;;;;;;;18.61;59.66;102935.69;5047507;28;2075;-37
2022/01/13 07:59:37;;;;;;;;;;;;;;;18.72;59.81;102944.97;5044285;28;1566;-36
2022/01/13 08:02:08;;;;;;;;;;;;;;;18.73;59.45;102946.72;5049985;28;1971;-36
2022/01/13 08:04:38;;;;;;;;;;;;;;;18.69;57.58;102952.22;5051309;28;1689;-37
2022/01/13 08:07:04;;;;;;;;;;;;;;;18.55;59.51;102965.47;5043449;28;1501;-39
2022/01/13 08:09:33;;;;;;;;;;;;;;;18.47;59.94;102973.03;5045595;28;1581;-37
2022/01/13 08:12:09;;;;;;;;;;;;;;;18.37;59.60;102969.09;5039100;28;1674;-37
2022/01/13 08:14:37;;;;;;;;;;;;;;;18.28;60.11;102968.63;5042697;28;1798;-37
2022/01/13 08:17:19;;;;;;;;;;;;;;;18.21;60.00;102969.00;5047618;28;1794;-37
2022/01/13 08:19:46;;;;;;;;;;;;;;;18.14;59.29;102965.75;5042520;28;1019;-37
2022/01/13 08:22:16;;;;;;;;;;;;;;;18.10;59.30;102969.53;5046173;28;1910;-38
2022/01/13 08:24:43;;;;;;;;;;;;;;;18.02;59.01;102972.56;5044895;28;1561;-37
2022/01/13 08:27:10;;;;;;;;;;;;;;;17.98;58.30;102971.00;5044696;28;1624;-37
2022/01/13 08:29:40;;;;;;;;;;;;;;;17.98;58.62;102987.06;5048990;28;1777;-36
2022/01/13 08:32:10;;;;;;;;;;;;;;;17.94;58.16;102992.63;5046598;28;1604;-37
2022/01/13 08:34:39;;;;;;;;;;;;;;;17.86;57.89;102980.47;5053565;28;1082;-37
2022/01/13 08:37:07;;;;;;;;;;;;;;;17.82;58.25;102976.19;5049352;28;1949;-36
2022/01/13 08:39:48;;;;;;;;;;;;;;;17.81;58.36;102973.63;5046396;28;1845;-37
2022/01/13 08:42:15;;;;;;;;;;;;;;;17.75;58.58;102969.41;5044426;28;1983;-36
2022/01/13 08:44:46;;;;;;;;;;;;;;;17.67;58.90;102964.44;5045723;28;1772;-37
2022/01/13 08:47:16;;;;;;;;;;;;;;;17.70;58.64;102971.44;5046666;28;1660;-36
2022/01/13 08:49:43;;;;;;;;;;;;;;;17.69;58.73;102959.00;5039796;28;1085;-36
2022/01/13 08:52:11;;;;;;;;;;;;;;;17.68;58.85;102950.09;5035471;28;1886;-37
2022/01/13 08:54:38;;;;;;;;;;;;;;;17.69;58.88;102942.94;5045823;28;1849;-36
2022/01/13 08:57:07;;;;;;;;;;;;;;;17.64;58.80;102939.63;5042888;28;1731;-37
2022/01/13 08:59:36;;;;;;;;;;;;;;;17.70;59.01;102939.31;5048963;28;1570;-37
2022/01/13 09:02:04;;;;;;;;;;;;;;;17.64;58.88;102923.56;5033866;28;1914;-37
2022/01/13 09:04:36;;;;;;;;;;;;;;;17.62;59.07;102937.00;5040283;28;1906;-37
2022/01/13 09:07:03;;;;;;;;;;;;;;;17.63;59.28;102924.53;5040049;28;1668;-36
2022/01/13 09:09:30;;;;;;;;;;;;;;;17.60;59.37;102936.22;5043674;28;1614;-37
2022/01/13 09:12:00;;;;;;;;;;;;;;;17.63;59.26;102921.84;5040995;28;1780;-36
2022/01/13 09:14:32;;;;;;;;;;;;;;;17.61;59.08;102913.88;5045412;28;1651;-37
2022/01/13 09:17:00;;;;;;;;;;;;;;;17.81;59.03;102910.25;5042450;28;1953;-37
2022/01/13 09:19:30;;;;;;;;;;;;;;;18.15;59.11;102915.75;5041465;28;1069;-38
2022/01/13 09:22:02;;;;;;;;;;;;;;;18.42;59.70;102918.81;5043771;28;1464;-38
2022/01/13 09:24:31;;;;;;;;;;;;;;;18.56;59.13;102902.91;5044113;28;1971;-37
2022/01/13 09:26:58;;;;;;;;;;;;;;;18.67;58.68;102900.53;5045863;28;1659;-37
2022/01/13 09:29:28;;;;;;;;;;;;;;;18.67;58.66;102880.91;5041307;28;1681;-37
2022/01/13 09:31:54;;;;;;;;;;;;;;;18.72;58.33;102875.28;5043651;28;1748;-36
2022/01/13 09:34:22;;;;;;;;;;;;;;;18.74;58.54;102863.56;5047174;28;1073;-37
2022/01/13 09:36:51;;;;;;;;;;;;;;;18.77;58.63;102875.91;5045147;28;1952;-37
2022/01/13 09:39:21;;;;;;;;;;;;;;;18.73;57.91;102871.66;5043637;28;1822;-37
2022/01/13 09:41:51;;;;;;;;;;;;;;;18.73;58.42;102866.31;5051370;28;1461;-37
2022/01/13 09:44:25;;;;;;;;;;;;;;;18.67;58.75;102843.38;5041324;28;1909;-37
2022/01/13 09:46:53;;;;;;;;;;;;;;;18.65;58.61;102842.59;5040100;28;1594;-36
2022/01/13 09:49:27;;;;;;;;;;;;;;;18.64;58.88;102849.78;5047111;28;1063;-37
2022/01/13 09:51:55;;;;;;;;;;;;;;;18.57;58.63;102839.47;5050427;28;1769;-37
2022/01/13 09:54:26;;;;;;;;;;;;;;;18.55;59.05;102850.25;5050046;28;1763;-36
2022/01/13 09:56:56;;;;;;;;;;;;;;;18.47;58.85;102842.63;5048886;28;1758;-37
2022/01/13 09:59:23;;;;;;;;;;;;;;;18.47;58.59;102844.44;5052839;28;2056;-37
2022/01/13 10:01:53;;;;;;;;;;;;;;;18.43;59.05;102845.56;5049665;28;1435;-36
2022/01/13 10:04:19;;;;;;;;;;;;;;;18.33;59.17;102841.63;5041605;28;1914;-36
2022/01/13 10:06:48;;;;;;;;;;;;;;;18.29;59.24;102857.00;5050494;28;1770;-37
2022/01/13 10:09:15;;;;;;;;;;;;;;;18.29;59.36;102863.22;5038207;28;1734;-37
2022/01/13 10:11:53;;;;;;;;;;;;;;;18.22;58.83;102855.56;5042210;28;1607;-37
2022/01/13 10:17:02;;;;;;;;;;;;;;;18.22;58.71;102867.19;5047648;28;1661;-37
2022/01/13 10:19:43;;;;;;;;;;;;;;;18.14;58.81;102858.63;5052574;28;1071;-36
2022/01/13 10:22:19;;;;;;;;;;;;;;;18.14;58.46;102868.50;5044901;28;1642;-37
2022/01/13 10:24:49;;;;;;;;;;;;;;;18.08;58.22;102850.94;5047212;28;1977;-37
2022/01/13 10:27:23;;;;;;;;;;;;;;;18.07;58.21;102851.88;5046523;28;1746;-37
2022/01/13 10:29:50;;;;;;;;;;;;;;;18.09;57.44;102850.84;5040753;28;1788;-37
2022/01/13 10:32:18;;;;;;;;;;;;;;;18.11;57.98;102839.22;5051338;28;1835;-37
2022/01/13 10:34:46;;;;;;;;;;;;;;;18.08;57.43;102842.91;5041634;28;1089;-36
2022/01/13 10:37:14;;;;;;;;;;;;;;;18.06;57.55;102826.94;5047544;28;1418;-37
2022/01/13 10:39:56;;;;;;;;;;;;;;;18.04;56.99;102846.69;5043292;28;1889;-36
2022/01/13 10:45:36;;;;;;;;;;;;;;;17.88;57.42;102847.44;5021259;28;2028;-36
2022/01/13 10:48:11;;;;;;;;;;;;;;;17.85;57.47;102844.94;5044570;28;1942;-36
2022/01/13 10:50:39;;;;;;;;;;;;;;;17.81;57.97;102837.97;5035825;28;1837;-36
2022/01/13 10:53:10;;;;;;;;;;;;;;;17.81;57.86;102835.31;5049360;28;1080;-36
2022/01/13 10:55:40;;;;;;;;;;;;;;;17.79;57.45;102847.91;5047033;28;1695;-36
2022/01/13 10:58:07;;;;;;;;;;;;;;;17.72;57.93;102827.72;5042251;28;2116;-37
2022/01/13 11:00:37;;;;;;;;;;;;;;;17.71;57.93;102826.00;5045017;28;1442;-37
2022/01/13 11:03:10;;;;;;;;;;;;;;;17.71;57.79;102823.34;5048279;28;1910;-36
2022/01/13 11:05:39;;;;;;;;;;;;;;;17.77;57.77;102822.16;5034992;28;1782;-36
2022/01/13 11:08:07;;;;;;;;;;;;;;;17.74;57.49;102812.47;5048696;28;1088;-37
2022/01/13 11:10:37;;;;;;;;;;;;;;;17.76;57.39;102826.63;5050228;28;1952;-37
2022/01/13 11:13:13;;;;;;;;;;;;;;;17.73;57.92;102809.88;5045496;28;1821;-36
2022/01/13 11:15:45;;;;;;;;;;;;;;;17.66;57.62;102794.09;5041585;28;2027;-37
2022/01/13 11:18:15;;;;;;;;;;;;;;;17.67;57.50;102795.00;5044959;28;1641;-37
2022/01/13 11:20:56;;;;;;;;;;;;;;;17.65;57.62;102797.75;5035463;28;1774;-37
2022/01/13 11:23:40;;;;;;;;;;;;;;;17.63;57.57;102809.47;5045664;28;1971;-38
2022/01/13 11:26:26;;;;;;;;;;;;;;;17.91;56.68;102806.28;5049917;28;1503;-36
2022/01/13 11:28:55;;;;;;;;;;;;;;;17.74;57.15;102796.41;5038536;28;1634;-38
2022/01/13 11:31:25;;;;;;;;;;;;;;;17.70;56.90;102790.34;5044378;28;1373;-38
2022/01/13 11:33:52;;;;;;;;;;;;;;;17.73;57.30;102762.56;5051913;28;1545;-37
2022/01/13 11:36:33;;;;;;;;;;;;;;;17.95;57.06;102772.22;5048866;28;1625;-36
2022/01/13 11:39:06;;;;;;;;;;;;;;;17.72;56.88;102750.13;5037809;28;1719;-36
2022/01/13 11:41:34;;;;;;;;;;;;;;;17.72;54.89;102762.66;5049575;28;1849;-36
2022/01/13 11:44:12;;;;;;;;;;;;;;;17.65;56.29;102775.47;5043809;28;1906;-37
2022/01/13 11:47:12;;;;;;;;;;;;;;;17.60;56.66;102766.81;5036458;28;1739;-37
2022/01/13 11:49:44;;;;;;;;;;;;;;;17.58;57.19;102774.03;5046424;28;1241;-36
2022/01/13 11:52:15;;;;;;;;;;;;;;;17.55;57.20;102784.88;5047396;28;1703;-37
2022/01/13 11:54:45;;;;;;;;;;;;;;;17.63;57.02;102777.38;5040551;28;1616;-37
2022/01/13 11:57:14;;;;;;;;;;;;;;;17.76;56.88;102782.94;5043846;28;1876;-37
2022/01/13 11:59:50;;;;;;;;;;;;;;;17.94;56.65;102784.72;5049919;28;1518;-36
2022/01/13 12:02:28;;;;;;;;;;;;;;;17.87;56.68;102781.50;5045470;28;1792;-37
2022/01/13 12:05:00;;;;;;;;;;;;;;;17.85;56.96;102771.81;5033790;28;1909;-36
2022/01/13 12:07:42;;;;;;;;;;;;;;;17.87;56.76;102756.53;5040623;28;1762;-35
2022/01/13 12:10:13;;;;;;;;;;;;;;;17.75;57.03;102766.03;5044390;28;1750;-37
2022/01/13 12:12:43;;;;;;;;;;;;;;;17.72;56.86;102759.97;5048907;28;1829;-37
2022/01/13 12:15:17;;;;;;;;;;;;;;;17.69;57.31;102771.72;5043815;28;1754;-37
2022/01/13 12:17:51;;;;;;;;;;;;;;;17.68;57.23;102754.75;5041431;28;1997;-37
2022/01/13 12:20:22;;;;;;;;;;;;;;;17.66;57.47;102763.81;5038470;28;1836;-37
2022/01/13 12:22:57;;;;;;;;;;;;;;;17.62;57.64;102748.88;5049630;28;986;-36
2022/01/13 12:25:32;;;;;;;;;;;;;;;17.71;57.59;102759.13;5037023;28;1902;-37
2022/01/13 12:27:59;;;;;;;;;;;;;;;17.66;57.42;102766.50;5048833;28;1821;-37
2022/01/13 12:30:27;;;;;;;;;;;;;;;17.69;57.59;102761.00;5048883;28;2007;-37
2022/01/13 12:32:58;;;;;;;;;;;;;;;17.68;57.50;102732.50;5045302;28;1791;-37
2022/01/13 12:35:41;;;;;;;;;;;;;;;17.63;57.39;102751.47;5038185;28;1657;-38
2022/01/13 12:40:56;;;;;;;;;;;;;;;18.08;57.12;102741.16;5049171;28;2423;-36
2022/01/13 12:43:51;;;;;;;;;;;;;;;18.39;56.54;102742.19;5036324;28;1953;-37
2022/01/13 12:46:22;;;;;;;;;;;;;;;18.51;56.33;102744.22;5030827;28;1748;-40
2022/01/13 12:48:51;;;;;;;;;;;;;;;18.53;56.34;102739.63;5042054;28;1070;-38
2022/01/13 12:51:19;;;;;;;;;;;;;;;18.61;56.36;102766.88;5046280;28;1538;-39
2022/01/13 12:53:46;;;;;;;;;;;;;;;18.64;55.69;102756.00;5050036;28;1914;-37
2022/01/13 12:56:20;;;;;;;;;;;;;;;18.61;55.97;102756.16;5043765;28;1537;-38
2022/01/13 12:59:01;;;;;;;;;;;;;;;18.67;56.45;102738.88;5031140;28;1096;-39
2022/01/13 13:01:30;;;;;;;;;;;;;;;18.86;56.69;102760.16;5037388;28;1803;-38
2022/01/13 13:04:10;;;;;;;;;;;;;;;18.92;55.64;102754.47;5039555;28;1989;-38
2022/01/13 13:06:40;;;;;;;;;;;;;;;19.07;55.92;102758.94;5048479;28;1737;-38
2022/01/13 13:09:10;;;;;;;;;;;;;;;19.03;56.99;102753.88;5032261;28;1750;-39
2022/01/13 13:11:45;;;;;;;;;;;;;;;19.03;56.67;102751.19;5049870;28;1624;-39
2022/01/13 13:14:17;;;;;;;;;;;;;;;19.05;56.69;102765.38;5035010;28;1742;-39
2022/01/13 13:16:44;;;;;;;;;;;;;;;19.03;57.02;102764.59;5036244;28;1726;-38
2022/01/13 13:19:19;;;;;;;;;;;;;;;19.07;56.79;102764.31;5039206;28;1077;-39
2022/01/13 13:21:52;;;;;;;;;;;;;;;19.19;56.61;102761.91;5037109;28;1984;-39